Startpagina
METAR-TAF:

METAR-TAF

Vliegvelden :

Flughafen Saarbrücken

Saarbrücken, Duitsland

breedte: 49-13N, lengte: 007-07E, hoogte: 322 m

Actueel weer

Dit bericht is 15 minuten geleden gemaakt, om 00:20 UTC
Wind 2 kt uit variabele richting
Temperatuur 14°C
Vochtigheid 82%
Druk 1025 hPa
Zicht 10 km of meer
geen wolken onder 1500 m en geen cumulonimbus

METAR: EDDR 130020Z VRB02KT CAVOK 14/11 Q1025

Tijdstip: 02:35 (00:35 UTC)

Verwachting

Dit bericht is 1 uur en het 35 minuten geleden gemaakt, om 23:00 UTC
Verwachting geldig van 13 om 00 UTC tot 13 om 24 UTC
Wind 4 kt uit het noordnoordwesten
Zicht 10 km of meer
geen wolken onder 1500 m en geen cumulonimbus
Wijzigt naar
van 13 om 06 UTC tot 13 om 08 UTC
Wind 6 kt uit het noordoosten

TAF: EDDR 122300Z 1300/1324 34004KT CAVOK BECMG 1306/1308 04006KT

Waarnemingen en weersverwachtingen van meer dan 4000 vliegvelden (METAR en TAF).

De beschikbare stations zijn de gele en rode punten op de kaart.

Ga met uw muis naar het station om de naam te zien.

Klik dan om waarnemingen en weersverwachtingen te zien.

kaart wijzigen: klik op de groene knoppen met een zwart kruis om in te zoomen, op de groene knop met een streepje om uit te zoomen of op de groene pijlen voor aangrenzende kaarten.


METAR-TAF: